sensor_id;sensor_type;location;lat;lon;timestamp;temperature;humidity
70826;SHT31;58446;41.490;22.098;2022-09-01T00:01:28;23.65;65.49
70826;SHT31;58446;41.490;22.098;2022-09-01T00:03:57;23.82;64.89
70826;SHT31;58446;41.490;22.098;2022-09-01T00:06:28;23.41;66.20
70826;SHT31;58446;41.490;22.098;2022-09-01T00:08:56;23.54;65.71
70826;SHT31;58446;41.490;22.098;2022-09-01T00:11:24;23.65;65.45
70826;SHT31;58446;41.490;22.098;2022-09-01T00:13:51;23.53;66.14
70826;SHT31;58446;41.490;22.098;2022-09-01T00:16:17;23.40;66.23
70826;SHT31;58446;41.490;22.098;2022-09-01T00:18:46;23.51;66.12
70826;SHT31;58446;41.490;22.098;2022-09-01T00:21:15;23.53;66.05
70826;SHT31;58446;41.490;22.098;2022-09-01T00:23:41;23.82;65.01
70826;SHT31;58446;41.490;22.098;2022-09-01T00:26:07;23.68;65.64
70826;SHT31;58446;41.490;22.098;2022-09-01T00:28:34;23.24;67.29
70826;SHT31;58446;41.490;22.098;2022-09-01T00:31:00;23.20;67.28
70826;SHT31;58446;41.490;22.098;2022-09-01T00:33:26;23.19;67.37
70826;SHT31;58446;41.490;22.098;2022-09-01T00:35:52;23.16;68.02
70826;SHT31;58446;41.490;22.098;2022-09-01T00:38:18;23.26;67.34
70826;SHT31;58446;41.490;22.098;2022-09-01T00:40:43;23.24;67.74
70826;SHT31;58446;41.490;22.098;2022-09-01T00:46:01;23.40;67.28
70826;SHT31;58446;41.490;22.098;2022-09-01T00:48:27;22.92;68.87
70826;SHT31;58446;41.490;22.098;2022-09-01T00:50:53;22.55;70.16
70826;SHT31;58446;41.490;22.098;2022-09-01T00:53:19;23.06;67.99
70826;SHT31;58446;41.490;22.098;2022-09-01T00:55:45;23.46;66.65
70826;SHT31;58446;41.490;22.098;2022-09-01T00:58:11;23.59;66.09
70826;SHT31;58446;41.490;22.098;2022-09-01T01:00:37;23.64;65.72
70826;SHT31;58446;41.490;22.098;2022-09-01T01:03:07;23.02;66.89
70826;SHT31;58446;41.490;22.098;2022-09-01T01:05:41;23.14;67.06
70826;SHT31;58446;41.490;22.098;2022-09-01T01:08:11;23.27;66.56
70826;SHT31;58446;41.490;22.098;2022-09-01T01:10:39;23.30;66.44
70826;SHT31;58446;41.490;22.098;2022-09-01T01:13:14;23.47;65.91
70826;SHT31;58446;41.490;22.098;2022-09-01T01:15:41;23.55;65.54
70826;SHT31;58446;41.490;22.098;2022-09-01T01:18:14;23.50;65.70
70826;SHT31;58446;41.490;22.098;2022-09-01T01:20:41;23.31;66.36
70826;SHT31;58446;41.490;22.098;2022-09-01T01:23:38;23.28;66.40
70826;SHT31;58446;41.490;22.098;2022-09-01T01:26:08;23.44;65.85
70826;SHT31;58446;41.490;22.098;2022-09-01T01:28:37;23.51;65.52
70826;SHT31;58446;41.490;22.098;2022-09-01T01:31:13;23.03;66.77
70826;SHT31;58446;41.490;22.098;2022-09-01T01:33:43;23.13;66.67
70826;SHT31;58446;41.490;22.098;2022-09-01T01:36:15;23.33;65.92
70826;SHT31;58446;41.490;22.098;2022-09-01T01:38:43;23.48;65.36
70826;SHT31;58446;41.490;22.098;2022-09-01T01:41:10;23.58;65.08
70826;SHT31;58446;41.490;22.098;2022-09-01T01:43:36;23.51;65.31
70826;SHT31;58446;41.490;22.098;2022-09-01T01:46:04;23.62;65.03
70826;SHT31;58446;41.490;22.098;2022-09-01T01:48:30;23.55;65.31
70826;SHT31;58446;41.490;22.098;2022-09-01T01:50:59;23.34;66.34
70826;SHT31;58446;41.490;22.098;2022-09-01T01:53:26;23.28;66.21
70826;SHT31;58446;41.490;22.098;2022-09-01T01:55:53;23.26;66.52
70826;SHT31;58446;41.490;22.098;2022-09-01T01:58:21;23.09;67.34
70826;SHT31;58446;41.490;22.098;2022-09-01T02:00:50;23.21;66.47
70826;SHT31;58446;41.490;22.098;2022-09-01T02:03:21;23.19;66.71
70826;SHT31;58446;41.490;22.098;2022-09-01T02:05:51;23.50;65.48
70826;SHT31;58446;41.490;22.098;2022-09-01T02:08:20;23.34;65.41
70826;SHT31;58446;41.490;22.098;2022-09-01T02:10:49;23.38;65.65
70826;SHT31;58446;41.490;22.098;2022-09-01T02:13:17;23.43;65.44
70826;SHT31;58446;41.490;22.098;2022-09-01T02:15:46;23.24;65.93
70826;SHT31;58446;41.490;22.098;2022-09-01T02:18:21;23.17;65.95
70826;SHT31;58446;41.490;22.098;2022-09-01T02:20:49;22.96;66.63
70826;SHT31;58446;41.490;22.098;2022-09-01T02:23:17;23.14;65.97
70826;SHT31;58446;41.490;22.098;2022-09-01T02:25:51;23.06;66.23
70826;SHT31;58446;41.490;22.098;2022-09-01T02:28:19;22.96;66.48
70826;SHT31;58446;41.490;22.098;2022-09-01T02:30:49;22.95;66.69
70826;SHT31;58446;41.490;22.098;2022-09-01T02:33:20;23.04;66.33
70826;SHT31;58446;41.490;22.098;2022-09-01T02:35:49;23.23;65.72
70826;SHT31;58446;41.490;22.098;2022-09-01T02:38:15;23.11;66.38
70826;SHT31;58446;41.490;22.098;2022-09-01T02:40:43;23.02;66.63
70826;SHT31;58446;41.490;22.098;2022-09-01T02:43:13;23.20;66.04
70826;SHT31;58446;41.490;22.098;2022-09-01T02:45:44;23.06;66.74
70826;SHT31;58446;41.490;22.098;2022-09-01T02:48:12;22.49;68.97
70826;SHT31;58446;41.490;22.098;2022-09-01T02:50:39;22.32;69.27
70826;SHT31;58446;41.490;22.098;2022-09-01T02:53:07;22.47;68.70
70826;SHT31;58446;41.490;22.098;2022-09-01T02:55:38;22.49;68.68
70826;SHT31;58446;41.490;22.098;2022-09-01T02:58:05;22.82;67.62
70826;SHT31;58446;41.490;22.098;2022-09-01T03:00:32;22.42;69.26
70826;SHT31;58446;41.490;22.098;2022-09-01T03:03:01;22.08;70.40
70826;SHT31;58446;41.490;22.098;2022-09-01T03:05:29;22.04;70.63
70826;SHT31;58446;41.490;22.098;2022-09-01T03:08:01;22.24;69.74
70826;SHT31;58446;41.490;22.098;2022-09-01T03:10:32;22.47;68.91
70826;SHT31;58446;41.490;22.098;2022-09-01T03:13:05;22.68;68.11
70826;SHT31;58446;41.490;22.098;2022-09-01T03:15:33;22.79;67.86
70826;SHT31;58446;41.490;22.098;2022-09-01T03:18:01;22.83;67.75
70826;SHT31;58446;41.490;22.098;2022-09-01T03:20:29;22.66;68.37
70826;SHT31;58446;41.490;22.098;2022-09-01T03:23:02;22.83;67.60
70826;SHT31;58446;41.490;22.098;2022-09-01T03:25:28;22.76;67.73
70826;SHT31;58446;41.490;22.098;2022-09-01T03:27:56;22.32;68.93
70826;SHT31;58446;41.490;22.098;2022-09-01T03:30:24;22.28;69.18
70826;SHT31;58446;41.490;22.098;2022-09-01T03:32:51;22.51;68.48
70826;SHT31;58446;41.490;22.098;2022-09-01T03:35:17;22.66;68.05
70826;SHT31;58446;41.490;22.098;2022-09-01T03:37:43;22.73;67.55
70826;SHT31;58446;41.490;22.098;2022-09-01T03:40:11;22.65;67.90
70826;SHT31;58446;41.490;22.098;2022-09-01T03:42:37;22.65;67.91
70826;SHT31;58446;41.490;22.098;2022-09-01T03:45:05;22.49;68.36
70826;SHT31;58446;41.490;22.098;2022-09-01T03:47:40;22.47;68.24
70826;SHT31;58446;41.490;22.098;2022-09-01T03:50:09;22.56;67.99
70826;SHT31;58446;41.490;22.098;2022-09-01T03:52:42;22.72;67.42
70826;SHT31;58446;41.490;22.098;2022-09-01T03:55:08;22.82;67.10
70826;SHT31;58446;41.490;22.098;2022-09-01T03:57:34;22.79;67.03
70826;SHT31;58446;41.490;22.098;2022-09-01T04:00:05;22.65;67.53
70826;SHT31;58446;41.490;22.098;2022-09-01T04:02:39;22.68;67.18
70826;SHT31;58446;41.490;22.098;2022-09-01T04:05:05;22.68;67.16
70826;SHT31;58446;41.490;22.098;2022-09-01T04:07:31;22.52;67.46
70826;SHT31;58446;41.490;22.098;2022-09-01T04:09:57;22.41;67.76
70826;SHT31;58446;41.490;22.098;2022-09-01T04:12:23;22.42;67.83
70826;SHT31;58446;41.490;22.098;2022-09-01T04:14:50;22.34;68.05
70826;SHT31;58446;41.490;22.098;2022-09-01T04:17:15;22.34;67.90
70826;SHT31;58446;41.490;22.098;2022-09-01T04:20:01;22.68;66.83
70826;SHT31;58446;41.490;22.098;2022-09-01T04:22:33;22.65;66.98
70826;SHT31;58446;41.490;22.098;2022-09-01T04:25:03;22.66;66.68
70826;SHT31;58446;41.490;22.098;2022-09-01T04:27:29;22.66;66.56
70826;SHT31;58446;41.490;22.098;2022-09-01T04:29:55;22.09;67.98
70826;SHT31;58446;41.490;22.098;2022-09-01T04:32:21;22.11;68.33
70826;SHT31;58446;41.490;22.098;2022-09-01T04:34:48;22.22;68.33
70826;SHT31;58446;41.490;22.098;2022-09-01T04:37:17;22.48;67.28
70826;SHT31;58446;41.490;22.098;2022-09-01T04:39:54;22.52;68.38
70826;SHT31;58446;41.490;22.098;2022-09-01T04:42:21;22.96;66.17
70826;SHT31;58446;41.490;22.098;2022-09-01T04:44:50;23.48;65.21
70826;SHT31;58446;41.490;22.098;2022-09-01T04:47:18;23.82;63.80
70826;SHT31;58446;41.490;22.098;2022-09-01T04:49:45;24.12;62.66
70826;SHT31;58446;41.490;22.098;2022-09-01T04:52:13;24.16;63.12
70826;SHT31;58446;41.490;22.098;2022-09-01T04:54:39;24.44;61.87
70826;SHT31;58446;41.490;22.098;2022-09-01T04:57:06;24.76;61.30
70826;SHT31;58446;41.490;22.098;2022-09-01T04:59:32;24.44;62.82
70826;SHT31;58446;41.490;22.098;2022-09-01T05:01:58;24.32;62.52
70826;SHT31;58446;41.490;22.098;2022-09-01T05:04:27;24.56;62.25
70826;SHT31;58446;41.490;22.098;2022-09-01T05:06:59;24.46;62.60
70826;SHT31;58446;41.490;22.098;2022-09-01T05:09:31;24.32;63.39
70826;SHT31;58446;41.490;22.098;2022-09-01T05:11:58;24.19;63.26
70826;SHT31;58446;41.490;22.098;2022-09-01T05:14:39;24.29;63.32
70826;SHT31;58446;41.490;22.098;2022-09-01T05:17:08;24.30;63.54
70826;SHT31;58446;41.490;22.098;2022-09-01T05:19:43;24.44;62.58
70826;SHT31;58446;41.490;22.098;2022-09-01T05:22:12;24.30;63.31
70826;SHT31;58446;41.490;22.098;2022-09-01T05:24:38;24.33;62.62
70826;SHT31;58446;41.490;22.098;2022-09-01T05:27:06;24.53;62.10
70826;SHT31;58446;41.490;22.098;2022-09-01T05:29:32;24.41;62.68
70826;SHT31;58446;41.490;22.098;2022-09-01T05:31:59;24.36;62.03
70826;SHT31;58446;41.490;22.098;2022-09-01T05:34:26;24.53;62.16
70826;SHT31;58446;41.490;22.098;2022-09-01T05:36:56;24.68;61.75
70826;SHT31;58446;41.490;22.098;2022-09-01T05:39:24;24.80;61.75
70826;SHT31;58446;41.490;22.098;2022-09-01T05:41:50;24.98;60.74
70826;SHT31;58446;41.490;22.098;2022-09-01T05:44:19;25.12;61.17
70826;SHT31;58446;41.490;22.098;2022-09-01T05:46:48;24.87;61.61
70826;SHT31;58446;41.490;22.098;2022-09-01T05:49:15;25.00;61.75
70826;SHT31;58446;41.490;22.098;2022-09-01T05:51:45;24.74;62.15
70826;SHT31;58446;41.490;22.098;2022-09-01T05:54:17;25.00;61.69
70826;SHT31;58446;41.490;22.098;2022-09-01T05:56:45;25.15;62.53
70826;SHT31;58446;41.490;22.098;2022-09-01T05:59:12;25.43;61.18
70826;SHT31;58446;41.490;22.098;2022-09-01T06:01:39;25.85;61.17
70826;SHT31;58446;41.490;22.098;2022-09-01T06:04:08;26.10;59.61
70826;SHT31;58446;41.490;22.098;2022-09-01T06:06:41;26.14;59.46
70826;SHT31;58446;41.490;22.098;2022-09-01T06:09:13;25.97;60.07
70826;SHT31;58446;41.490;22.098;2022-09-01T06:11:43;26.31;59.75
70826;SHT31;58446;41.490;22.098;2022-09-01T06:14:12;26.51;59.23
70826;SHT31;58446;41.490;22.098;2022-09-01T06:16:37;26.65;58.15
70826;SHT31;58446;41.490;22.098;2022-09-01T06:19:03;26.55;58.72
70826;SHT31;58446;41.490;22.098;2022-09-01T06:21:30;26.48;58.79
70826;SHT31;58446;41.490;22.098;2022-09-01T06:23:57;26.41;59.60
70826;SHT31;58446;41.490;22.098;2022-09-01T06:26:26;26.54;59.44
70826;SHT31;58446;41.490;22.098;2022-09-01T06:29:05;26.58;60.11
70826;SHT31;58446;41.490;22.098;2022-09-01T06:31:33;26.88;58.93
70826;SHT31;58446;41.490;22.098;2022-09-01T06:34:01;26.79;57.78
70826;SHT31;58446;41.490;22.098;2022-09-01T06:36:29;27.02;58.54
70826;SHT31;58446;41.490;22.098;2022-09-01T06:38:57;27.26;57.45
70826;SHT31;58446;41.490;22.098;2022-09-01T06:41:26;27.09;56.11
70826;SHT31;58446;41.490;22.098;2022-09-01T06:43:52;27.20;58.05
70826;SHT31;58446;41.490;22.098;2022-09-01T06:46:20;27.35;57.29
70826;SHT31;58446;41.490;22.098;2022-09-01T06:48:46;27.46;57.09
70826;SHT31;58446;41.490;22.098;2022-09-01T06:51:14;27.57;56.81
70826;SHT31;58446;41.490;22.098;2022-09-01T06:53:42;27.76;56.21
70826;SHT31;58446;41.490;22.098;2022-09-01T06:56:09;27.97;55.76
70826;SHT31;58446;41.490;22.098;2022-09-01T06:58:40;28.04;54.51
70826;SHT31;58446;41.490;22.098;2022-09-01T07:01:12;28.02;54.62
70826;SHT31;58446;41.490;22.098;2022-09-01T07:03:42;27.74;55.69
70826;SHT31;58446;41.490;22.098;2022-09-01T07:06:08;27.67;55.02
70826;SHT31;58446;41.490;22.098;2022-09-01T07:08:35;27.68;55.85
70826;SHT31;58446;41.490;22.098;2022-09-01T07:11:05;27.96;55.44
70826;SHT31;58446;41.490;22.098;2022-09-01T07:13:32;28.09;54.86
70826;SHT31;58446;41.490;22.098;2022-09-01T07:16:00;28.09;54.73
70826;SHT31;58446;41.490;22.098;2022-09-01T07:18:27;28.04;54.14
70826;SHT31;58446;41.490;22.098;2022-09-01T07:20:55;28.02;53.98
70826;SHT31;58446;41.490;22.098;2022-09-01T07:23:21;28.09;55.36
70826;SHT31;58446;41.490;22.098;2022-09-01T07:25:49;28.24;54.87
70826;SHT31;58446;41.490;22.098;2022-09-01T07:28:20;28.45;54.55
70826;SHT31;58446;41.490;22.098;2022-09-01T07:30:47;28.53;54.11
70826;SHT31;58446;41.490;22.098;2022-09-01T07:33:17;28.63;52.92
70826;SHT31;58446;41.490;22.098;2022-09-01T07:35:45;28.60;52.11
70826;SHT31;58446;41.490;22.098;2022-09-01T07:38:12;28.49;52.95
70826;SHT31;58446;41.490;22.098;2022-09-01T07:40:39;28.65;52.41
70826;SHT31;58446;41.490;22.098;2022-09-01T07:43:08;28.69;52.90
70826;SHT31;58446;41.490;22.098;2022-09-01T07:45:43;28.58;52.54
70826;SHT31;58446;41.490;22.098;2022-09-01T07:48:12;28.44;52.34
70826;SHT31;58446;41.490;22.098;2022-09-01T07:50:42;28.69;52.92
70826;SHT31;58446;41.490;22.098;2022-09-01T07:53:13;28.96;52.29
70826;SHT31;58446;41.490;22.098;2022-09-01T07:55:44;29.07;51.88
70826;SHT31;58446;41.490;22.098;2022-09-01T07:58:12;29.33;51.05
70826;SHT31;58446;41.490;22.098;2022-09-01T08:00:39;29.37;51.25
70826;SHT31;58446;41.490;22.098;2022-09-01T08:03:07;29.47;52.18
70826;SHT31;58446;41.490;22.098;2022-09-01T08:05:33;29.44;50.71
70826;SHT31;58446;41.490;22.098;2022-09-01T08:07:59;29.53;52.26
70826;SHT31;58446;41.490;22.098;2022-09-01T08:10:27;29.04;51.23
70826;SHT31;58446;41.490;22.098;2022-09-01T08:12:53;28.62;53.10
70826;SHT31;58446;41.490;22.098;2022-09-01T08:15:19;28.34;53.75
70826;SHT31;58446;41.490;22.098;2022-09-01T08:17:44;28.29;53.39
70826;SHT31;58446;41.490;22.098;2022-09-01T08:20:11;28.55;55.59
70826;SHT31;58446;41.490;22.098;2022-09-01T08:22:36;28.92;52.21
70826;SHT31;58446;41.490;22.098;2022-09-01T08:25:07;29.21;52.77
70826;SHT31;58446;41.490;22.098;2022-09-01T08:27:35;29.58;51.31
70826;SHT31;58446;41.490;22.098;2022-09-01T08:30:09;29.71;51.80
70826;SHT31;58446;41.490;22.098;2022-09-01T08:32:36;29.71;51.05
70826;SHT31;58446;41.490;22.098;2022-09-01T08:35:03;29.81;50.01
70826;SHT31;58446;41.490;22.098;2022-09-01T08:37:31;29.41;50.05
70826;SHT31;58446;41.490;22.098;2022-09-01T08:39:57;29.07;50.72
70826;SHT31;58446;41.490;22.098;2022-09-01T08:45:31;28.84;51.82
70826;SHT31;58446;41.490;22.098;2022-09-01T08:48:19;28.84;51.55
70826;SHT31;58446;41.490;22.098;2022-09-01T08:50:52;28.93;52.42
70826;SHT31;58446;41.490;22.098;2022-09-01T08:53:44;28.99;51.30
70826;SHT31;58446;41.490;22.098;2022-09-01T08:56:12;29.04;51.07
70826;SHT31;58446;41.490;22.098;2022-09-01T08:58:38;28.86;51.28
70826;SHT31;58446;41.490;22.098;2022-09-01T09:01:15;28.86;51.06
70826;SHT31;58446;41.490;22.098;2022-09-01T09:03:54;28.63;50.93
70826;SHT31;58446;41.490;22.098;2022-09-01T09:06:40;28.76;50.29
70826;SHT31;58446;41.490;22.098;2022-09-01T09:09:08;28.58;52.39
70826;SHT31;58446;41.490;22.098;2022-09-01T09:17:08;29.37;52.57
70826;SHT31;58446;41.490;22.098;2022-09-01T09:19:40;29.82;50.17
70826;SHT31;58446;41.490;22.098;2022-09-01T09:22:09;30.15;48.86
70826;SHT31;58446;41.490;22.098;2022-09-01T09:29:52;30.59;45.72
70826;SHT31;58446;41.490;22.098;2022-09-01T09:32:20;30.57;47.37
70826;SHT31;58446;41.490;22.098;2022-09-01T09:34:47;30.71;48.13
70826;SHT31;58446;41.490;22.098;2022-09-01T09:37:26;30.84;45.95
70826;SHT31;58446;41.490;22.098;2022-09-01T09:42:33;30.77;45.31
70826;SHT31;58446;41.490;22.098;2022-09-01T09:44:59;30.46;47.75
70826;SHT31;58446;41.490;22.098;2022-09-01T09:47:35;30.59;47.47
70826;SHT31;58446;41.490;22.098;2022-09-01T09:50:26;30.87;47.06
70826;SHT31;58446;41.490;22.098;2022-09-01T09:53:24;30.74;44.50
70826;SHT31;58446;41.490;22.098;2022-09-01T09:55:55;30.77;44.85
70826;SHT31;58446;41.490;22.098;2022-09-01T09:58:24;30.88;44.29
70826;SHT31;58446;41.490;22.098;2022-09-01T10:01:11;30.46;46.20
70826;SHT31;58446;41.490;22.098;2022-09-01T10:03:44;30.32;46.99
70826;SHT31;58446;41.490;22.098;2022-09-01T10:06:34;30.40;47.87
70826;SHT31;58446;41.490;22.098;2022-09-01T10:12:05;30.19;46.29
70826;SHT31;58446;41.490;22.098;2022-09-01T10:14:44;30.19;45.86
70826;SHT31;58446;41.490;22.098;2022-09-01T10:17:14;30.29;46.33
70826;SHT31;58446;41.490;22.098;2022-09-01T10:19:50;30.25;45.83
70826;SHT31;58446;41.490;22.098;2022-09-01T10:22:19;29.92;47.33
70826;SHT31;58446;41.490;22.098;2022-09-01T10:24:45;30.04;49.43
70826;SHT31;58446;41.490;22.098;2022-09-01T10:27:23;30.39;48.97
70826;SHT31;58446;41.490;22.098;2022-09-01T10:29:55;30.67;46.63
70826;SHT31;58446;41.490;22.098;2022-09-01T10:32:26;30.92;45.79
70826;SHT31;58446;41.490;22.098;2022-09-01T10:34:54;31.14;46.80
70826;SHT31;58446;41.490;22.098;2022-09-01T10:37:21;31.19;45.19
70826;SHT31;58446;41.490;22.098;2022-09-01T10:42:47;31.56;43.42
70826;SHT31;58446;41.490;22.098;2022-09-01T10:45:36;31.42;43.84
70826;SHT31;58446;41.490;22.098;2022-09-01T10:50:51;31.18;43.59
70826;SHT31;58446;41.490;22.098;2022-09-01T10:56:06;31.08;44.37
70826;SHT31;58446;41.490;22.098;2022-09-01T10:58:42;31.02;46.37
70826;SHT31;58446;41.490;22.098;2022-09-01T11:01:10;31.08;43.81
70826;SHT31;58446;41.490;22.098;2022-09-01T11:03:49;30.87;45.08
70826;SHT31;58446;41.490;22.098;2022-09-01T11:06:55;30.77;45.90
70826;SHT31;58446;41.490;22.098;2022-09-01T11:12:09;30.74;44.78
70826;SHT31;58446;41.490;22.098;2022-09-01T11:15:01;31.01;43.61
70826;SHT31;58446;41.490;22.098;2022-09-01T11:17:38;31.12;43.38
70826;SHT31;58446;41.490;22.098;2022-09-01T11:20:27;31.32;43.56
70826;SHT31;58446;41.490;22.098;2022-09-01T11:23:03;31.42;43.03
70826;SHT31;58446;41.490;22.098;2022-09-01T11:28:51;31.58;41.36
70826;SHT31;58446;41.490;22.098;2022-09-01T11:31:29;31.70;42.68
70826;SHT31;58446;41.490;22.098;2022-09-01T11:34:26;31.79;43.70
70826;SHT31;58446;41.490;22.098;2022-09-01T11:36:58;32.03;42.60
70826;SHT31;58446;41.490;22.098;2022-09-01T11:39:35;32.03;42.85
70826;SHT31;58446;41.490;22.098;2022-09-01T11:42:16;32.06;39.98
70826;SHT31;58446;41.490;22.098;2022-09-01T11:45:02;31.97;41.06
70826;SHT31;58446;41.490;22.098;2022-09-01T11:47:40;31.94;41.38
70826;SHT31;58446;41.490;22.098;2022-09-01T11:50:30;32.03;41.08
70826;SHT31;58446;41.490;22.098;2022-09-01T11:55:36;31.96;40.94
70826;SHT31;58446;41.490;22.098;2022-09-01T11:58:03;32.12;41.00
70826;SHT31;58446;41.490;22.098;2022-09-01T12:00:32;32.26;40.14
70826;SHT31;58446;41.490;22.098;2022-09-01T12:05:51;32.00;43.12
70826;SHT31;58446;41.490;22.098;2022-09-01T12:08:23;32.16;39.90
70826;SHT31;58446;41.490;22.098;2022-09-01T12:11:07;32.30;41.42
70826;SHT31;58446;41.490;22.098;2022-09-01T12:13:34;32.21;40.51
70826;SHT31;58446;41.490;22.098;2022-09-01T12:16:06;32.30;41.80
70826;SHT31;58446;41.490;22.098;2022-09-01T12:18:35;32.20;41.18
70826;SHT31;58446;41.490;22.098;2022-09-01T12:21:04;32.14;40.09
70826;SHT31;58446;41.490;22.098;2022-09-01T12:23:39;32.17;41.03
70826;SHT31;58446;41.490;22.098;2022-09-01T12:26:17;32.12;40.10
70826;SHT31;58446;41.490;22.098;2022-09-01T12:28:43;32.10;40.27
70826;SHT31;58446;41.490;22.098;2022-09-01T12:31:18;32.09;40.59
70826;SHT31;58446;41.490;22.098;2022-09-01T12:33:46;32.06;40.80
70826;SHT31;58446;41.490;22.098;2022-09-01T12:36:34;32.10;40.96
70826;SHT31;58446;41.490;22.098;2022-09-01T12:39:20;32.14;40.78
70826;SHT31;58446;41.490;22.098;2022-09-01T12:42:01;32.21;39.64
70826;SHT31;58446;41.490;22.098;2022-09-01T12:46:54;32.44;38.81
70826;SHT31;58446;41.490;22.098;2022-09-01T12:49:43;32.55;39.22
70826;SHT31;58446;41.490;22.098;2022-09-01T12:54:38;32.67;38.73
70826;SHT31;58446;41.490;22.098;2022-09-01T12:57:04;32.79;38.86
70826;SHT31;58446;41.490;22.098;2022-09-01T12:59:30;32.74;38.79
70826;SHT31;58446;41.490;22.098;2022-09-01T13:01:56;32.79;38.39
70826;SHT31;58446;41.490;22.098;2022-09-01T13:04:26;32.89;38.24
70826;SHT31;58446;41.490;22.098;2022-09-01T13:06:54;32.88;40.12
70826;SHT31;58446;41.490;22.098;2022-09-01T13:09:20;32.67;40.47
70826;SHT31;58446;41.490;22.098;2022-09-01T13:11:47;32.72;40.89
70826;SHT31;58446;41.490;22.098;2022-09-01T13:14:14;32.72;39.76
70826;SHT31;58446;41.490;22.098;2022-09-01T13:16:40;32.64;40.02
70826;SHT31;58446;41.490;22.098;2022-09-01T13:19:06;32.54;40.78
70826;SHT31;58446;41.490;22.098;2022-09-01T13:21:33;32.48;40.56
70826;SHT31;58446;41.490;22.098;2022-09-01T13:24:03;32.41;40.34
70826;SHT31;58446;41.490;22.098;2022-09-01T13:26:30;32.41;41.15
70826;SHT31;58446;41.490;22.098;2022-09-01T13:28:57;32.26;40.55
70826;SHT31;58446;41.490;22.098;2022-09-01T13:31:22;32.19;41.35
70826;SHT31;58446;41.490;22.098;2022-09-01T13:33:48;32.23;41.21
70826;SHT31;58446;41.490;22.098;2022-09-01T13:36:14;32.14;41.04
70826;SHT31;58446;41.490;22.098;2022-09-01T13:38:40;32.16;41.05
70826;SHT31;58446;41.490;22.098;2022-09-01T13:41:06;32.10;41.29
70826;SHT31;58446;41.490;22.098;2022-09-01T13:43:33;32.16;41.84
70826;SHT31;58446;41.490;22.098;2022-09-01T13:45:59;32.28;40.70
70826;SHT31;58446;41.490;22.098;2022-09-01T13:48:24;32.24;41.38
70826;SHT31;58446;41.490;22.098;2022-09-01T13:50:52;32.31;41.84
70826;SHT31;58446;41.490;22.098;2022-09-01T13:53:18;32.06;41.38
70826;SHT31;58446;41.490;22.098;2022-09-01T13:55:44;31.97;42.50
70826;SHT31;58446;41.490;22.098;2022-09-01T13:58:10;31.92;40.72
70826;SHT31;58446;41.490;22.098;2022-09-01T14:00:39;31.80;41.32
70826;SHT31;58446;41.490;22.098;2022-09-01T14:03:08;31.83;40.51
70826;SHT31;58446;41.490;22.098;2022-09-01T14:05:37;31.87;40.71
70826;SHT31;58446;41.490;22.098;2022-09-01T14:08:04;31.86;40.68
70826;SHT31;58446;41.490;22.098;2022-09-01T14:10:31;31.75;41.13
70826;SHT31;58446;41.490;22.098;2022-09-01T14:12:58;31.67;40.84
70826;SHT31;58446;41.490;22.098;2022-09-01T14:15:24;31.65;41.09
70826;SHT31;58446;41.490;22.098;2022-09-01T14:17:51;31.65;41.99
70826;SHT31;58446;41.490;22.098;2022-09-01T14:20:20;31.70;42.84
70826;SHT31;58446;41.490;22.098;2022-09-01T14:22:47;31.67;41.91
70826;SHT31;58446;41.490;22.098;2022-09-01T14:25:16;31.58;42.26
70826;SHT31;58446;41.490;22.098;2022-09-01T14:27:42;31.58;42.82
70826;SHT31;58446;41.490;22.098;2022-09-01T14:30:17;31.62;41.92
70826;SHT31;58446;41.490;22.098;2022-09-01T14:32:43;31.50;42.66
70826;SHT31;58446;41.490;22.098;2022-09-01T14:35:09;31.50;42.91
70826;SHT31;58446;41.490;22.098;2022-09-01T14:37:38;31.50;42.83
70826;SHT31;58446;41.490;22.098;2022-09-01T14:40:05;31.53;42.25
70826;SHT31;58446;41.490;22.098;2022-09-01T14:42:33;31.56;42.35
70826;SHT31;58446;41.490;22.098;2022-09-01T14:45:00;31.52;41.52
70826;SHT31;58446;41.490;22.098;2022-09-01T14:47:26;31.56;41.52
70826;SHT31;58446;41.490;22.098;2022-09-01T14:49:52;31.61;42.03
70826;SHT31;58446;41.490;22.098;2022-09-01T14:52:19;31.65;41.77
70826;SHT31;58446;41.490;22.098;2022-09-01T14:54:46;31.63;40.69
70826;SHT31;58446;41.490;22.098;2022-09-01T14:57:12;31.73;41.05
70826;SHT31;58446;41.490;22.098;2022-09-01T14:59:39;31.67;40.82
70826;SHT31;58446;41.490;22.098;2022-09-01T15:02:06;31.70;41.60
70826;SHT31;58446;41.490;22.098;2022-09-01T15:04:32;31.73;42.13
70826;SHT31;58446;41.490;22.098;2022-09-01T15:06:58;31.79;41.22
70826;SHT31;58446;41.490;22.098;2022-09-01T15:09:24;31.73;40.77
70826;SHT31;58446;41.490;22.098;2022-09-01T15:11:50;31.70;41.11
70826;SHT31;58446;41.490;22.098;2022-09-01T15:14:16;31.55;41.84
70826;SHT31;58446;41.490;22.098;2022-09-01T15:16:42;31.56;42.20
70826;SHT31;58446;41.490;22.098;2022-09-01T15:19:11;31.56;42.11
70826;SHT31;58446;41.490;22.098;2022-09-01T15:21:38;31.43;42.51
70826;SHT31;58446;41.490;22.098;2022-09-01T15:24:05;31.36;42.82
70826;SHT31;58446;41.490;22.098;2022-09-01T15:26:32;31.28;42.86
70826;SHT31;58446;41.490;22.098;2022-09-01T15:28:57;31.12;43.64
70826;SHT31;58446;41.490;22.098;2022-09-01T15:31:24;31.04;43.46
70826;SHT31;58446;41.490;22.098;2022-09-01T15:33:55;31.02;43.70
70826;SHT31;58446;41.490;22.098;2022-09-01T15:36:22;30.92;43.89
70826;SHT31;58446;41.490;22.098;2022-09-01T15:38:49;30.81;44.31
70826;SHT31;58446;41.490;22.098;2022-09-01T15:41:26;30.64;44.52
70826;SHT31;58446;41.490;22.098;2022-09-01T15:43:53;30.47;45.13
70826;SHT31;58446;41.490;22.098;2022-09-01T15:46:19;30.26;45.74
70826;SHT31;58446;41.490;22.098;2022-09-01T15:48:46;30.20;46.20
70826;SHT31;58446;41.490;22.098;2022-09-01T15:53:52;30.05;47.38
70826;SHT31;58446;41.490;22.098;2022-09-01T15:56:18;29.93;47.61
70826;SHT31;58446;41.490;22.098;2022-09-01T15:58:46;29.79;48.16
70826;SHT31;58446;41.490;22.098;2022-09-01T16:01:14;29.75;48.09
70826;SHT31;58446;41.490;22.098;2022-09-01T16:03:40;29.71;48.48
70826;SHT31;58446;41.490;22.098;2022-09-01T16:06:06;29.64;48.79
70826;SHT31;58446;41.490;22.098;2022-09-01T16:08:33;29.65;49.07
70826;SHT31;58446;41.490;22.098;2022-09-01T16:10:59;29.57;49.16
70826;SHT31;58446;41.490;22.098;2022-09-01T16:13:26;29.43;49.45
70826;SHT31;58446;41.490;22.098;2022-09-01T16:16:09;29.38;49.96
70826;SHT31;58446;41.490;22.098;2022-09-01T16:19:03;29.34;50.11
70826;SHT31;58446;41.490;22.098;2022-09-01T16:24:11;29.13;50.32